Time;durP1;ratioP1;P1;durP2;ratioP2;P2;SDS_P1;SDS_P2;PMS_P1;PMS_P2;Temp;Humidity;BMP_temperature;BMP_pressure;BME280_temperature;BME280_humidity;BME280_pressure;Samples;Min_cycle;Max_cycle;Signal;HPM_P1;HPM_P2
2023/06/03 00:00:28;;;;;;;;;;;13.60;97.30;;;;;;4592810;19;19982;-24
2023/06/03 00:02:20;;;;;;;;;;;13.70;97.50;;;;;;4592561;19;20003;-24
2023/06/03 00:03:51;;;;;;;;;;;13.60;97.50;;;;;;4591655;19;19906;-23
2023/06/03 00:05:22;;;;;;;;;;;13.60;97.60;;;;;;4592422;19;19926;-25
2023/06/03 00:06:53;;;;;;;;;;;13.60;97.40;;;;;;4592519;19;20329;-25
2023/06/03 00:08:24;;;;;;;;;;;13.60;97.40;;;;;;4592546;19;19935;-23
2023/06/03 00:09:55;;;;;;;;;;;13.60;97.60;;;;;;4592665;19;19927;-24
2023/06/03 00:11:27;;;;;;;;;;;13.60;97.50;;;;;;4592144;19;19947;-26
2023/06/03 00:12:57;;;;;;;;;;;13.60;97.60;;;;;;4592429;19;20276;-24
2023/06/03 00:14:28;;;;;;;;;;;13.60;97.60;;;;;;4592303;19;19932;-26
2023/06/03 00:16:00;;;;;;;;;;;13.60;97.70;;;;;;4591593;19;19918;-27
2023/06/03 00:17:31;;;;;;;;;;;13.60;97.80;;;;;;4590376;19;19925;-24
2023/06/03 00:19:02;;;;;;;;;;;13.60;97.80;;;;;;4591897;19;20321;-25
2023/06/03 00:20:36;;;;;;;;;;;13.60;98.00;;;;;;4592427;19;19918;-24
2023/06/03 00:22:07;;;;;;;;;;;13.60;98.00;;;;;;4590973;19;19918;-25
2023/06/03 00:23:39;;;;;;;;;;;13.60;97.80;;;;;;4591768;19;19918;-23
2023/06/03 00:25:11;;;;;;;;;;;13.60;97.80;;;;;;4591067;19;19926;-24
2023/06/03 00:26:42;;;;;;;;;;;13.50;97.90;;;;;;4592047;19;19925;-28
2023/06/03 00:28:15;;;;;;;;;;;13.50;98.00;;;;;;4591235;19;19926;-23
2023/06/03 00:29:46;;;;;;;;;;;13.50;98.00;;;;;;4590610;19;19922;-22
2023/06/03 00:31:18;;;;;;;;;;;13.50;97.90;;;;;;4591754;19;19918;-27
2023/06/03 00:32:49;;;;;;;;;;;13.50;97.90;;;;;;4592697;19;19922;-25
2023/06/03 00:34:20;;;;;;;;;;;13.50;97.80;;;;;;4590567;19;20261;-22
2023/06/03 00:35:51;;;;;;;;;;;13.40;97.80;;;;;;4591501;19;19922;-25
2023/06/03 00:37:22;;;;;;;;;;;13.50;97.90;;;;;;4592201;19;19925;-27
2023/06/03 00:38:53;;;;;;;;;;;13.40;97.80;;;;;;4592641;19;19911;-23
2023/06/03 00:40:24;;;;;;;;;;;13.50;97.50;;;;;;4590537;19;19919;-24
2023/06/03 00:41:56;;;;;;;;;;;13.40;97.20;;;;;;4591301;19;19931;-22
2023/06/03 00:43:40;;;;;;;;;;;13.40;97.30;;;;;;4589036;19;19923;-23
2023/06/03 00:45:11;;;;;;;;;;;13.40;97.20;;;;;;4590195;19;20329;-24
2023/06/03 00:46:42;;;;;;;;;;;13.30;97.50;;;;;;4590410;19;19982;-29
2023/06/03 00:48:13;;;;;;;;;;;13.30;97.40;;;;;;4590586;19;19938;-24
2023/06/03 00:49:44;;;;;;;;;;;13.30;97.30;;;;;;4591382;19;19919;-27
2023/06/03 00:53:51;;;;;;;;;;;13.30;97.50;;;;;;4590514;19;19935;-25
2023/06/03 00:55:23;;;;;;;;;;;13.30;97.40;;;;;;4591445;19;19939;-22
2023/06/03 00:56:53;;;;;;;;;;;13.20;97.40;;;;;;4590042;19;19918;-23
2023/06/03 00:58:24;;;;;;;;;;;13.20;97.60;;;;;;4589856;19;19915;-25
2023/06/03 00:59:56;;;;;;;;;;;13.20;97.50;;;;;;4590486;19;19918;-29
2023/06/03 01:01:28;;;;;;;;;;;13.20;97.60;;;;;;4590053;19;19919;-23
2023/06/03 01:03:01;;;;;;;;;;;13.20;97.70;;;;;;4590110;19;19921;-23
2023/06/03 01:04:32;;;;;;;;;;;13.20;97.70;;;;;;4590538;19;19918;-28
2023/06/03 01:06:06;;;;;;;;;;;13.20;97.80;;;;;;4590145;19;19915;-28
2023/06/03 01:08:00;;;;;;;;;;;13.20;97.80;;;;;;4590808;19;19925;-23
2023/06/03 01:09:53;;;;;;;;;;;13.20;97.80;;;;;;4590814;19;19918;-23
2023/06/03 01:11:27;;;;;;;;;;;13.10;97.90;;;;;;4590313;19;20329;-26
2023/06/03 01:12:58;;;;;;;;;;;13.10;97.90;;;;;;4590024;19;19914;-23
2023/06/03 01:14:42;;;;;;;;;;;13.10;97.70;;;;;;4591128;19;19911;-24
2023/06/03 01:16:16;;;;;;;;;;;13.10;97.80;;;;;;4590050;19;19917;-24
2023/06/03 01:17:47;;;;;;;;;;;13.10;97.60;;;;;;4589290;19;19914;-23
2023/06/03 01:19:31;;;;;;;;;;;13.10;97.60;;;;;;4590105;19;19956;-24
2023/06/03 01:21:02;;;;;;;;;;;13.10;97.60;;;;;;4590587;19;19911;-24
2023/06/03 01:22:36;;;;;;;;;;;13.00;97.50;;;;;;4589871;19;20063;-24
2023/06/03 01:24:16;;;;;;;;;;;13.10;97.30;;;;;;4590444;19;19914;-24
2023/06/03 01:25:50;;;;;;;;;;;13.00;97.30;;;;;;4591095;19;19987;-28
2023/06/03 01:27:21;;;;;;;;;;;13.00;97.30;;;;;;4590269;19;19915;-25
2023/06/03 01:28:52;;;;;;;;;;;13.00;97.30;;;;;;4591009;19;19938;-27
2023/06/03 01:30:23;;;;;;;;;;;13.00;97.20;;;;;;4590809;19;19915;-27
2023/06/03 01:31:55;;;;;;;;;;;13.00;97.10;;;;;;4589888;19;19918;-23
2023/06/03 01:33:27;;;;;;;;;;;13.00;97.10;;;;;;4589926;19;19918;-26
2023/06/03 01:34:58;;;;;;;;;;;12.90;97.20;;;;;;4591085;19;19914;-24
2023/06/03 01:36:29;;;;;;;;;;;12.90;97.30;;;;;;4590888;19;19930;-23
2023/06/03 01:38:03;;;;;;;;;;;13.00;97.30;;;;;;4590541;19;19915;-28
2023/06/03 01:39:35;;;;;;;;;;;12.90;97.10;;;;;;4589723;19;20325;-23
2023/06/03 01:41:06;;;;;;;;;;;12.90;96.90;;;;;;4590069;19;19949;-26
2023/06/03 01:42:40;;;;;;;;;;;12.90;96.90;;;;;;4589295;19;19918;-25
2023/06/03 01:44:11;;;;;;;;;;;12.90;96.90;;;;;;4590333;19;19931;-24
2023/06/03 02:10:51;;;;;;;;;;;12.80;97.20;;;;;;4593574;19;19918;-24
2023/06/03 02:12:23;;;;;;;;;;;12.90;97.30;;;;;;4594500;19;19966;-25
2023/06/03 02:13:54;;;;;;;;;;;12.80;97.10;;;;;;4594813;19;20337;-26
2023/06/03 02:15:25;;;;;;;;;;;12.90;97.30;;;;;;4595168;19;19922;-23
2023/06/03 02:17:11;;;;;;;;;;;12.80;96.90;;;;;;4593814;19;19974;-24
2023/06/03 02:18:43;;;;;;;;;;;12.80;96.90;;;;;;4592745;19;19942;-23
2023/06/03 02:20:13;;;;;;;;;;;12.80;97.00;;;;;;4594859;19;20326;-24
2023/06/03 02:21:44;;;;;;;;;;;12.80;96.80;;;;;;4593573;19;19915;-24
2023/06/03 02:23:16;;;;;;;;;;;12.80;96.90;;;;;;4594163;19;19926;-24
2023/06/03 02:24:47;;;;;;;;;;;12.80;97.00;;;;;;4594252;19;19942;-22
2023/06/03 02:26:18;;;;;;;;;;;12.80;97.00;;;;;;4594756;19;19917;-26
2023/06/03 02:27:50;;;;;;;;;;;12.80;96.70;;;;;;4594318;19;20349;-27
2023/06/03 02:29:23;;;;;;;;;;;12.70;96.70;;;;;;4594535;19;19918;-25
2023/06/03 02:30:55;;;;;;;;;;;12.70;96.60;;;;;;4594261;19;19915;-24
2023/06/03 02:32:27;;;;;;;;;;;12.70;96.60;;;;;;4594289;19;19926;-23
2023/06/03 02:33:59;;;;;;;;;;;12.70;96.50;;;;;;4594421;19;19915;-23
2023/06/03 02:35:30;;;;;;;;;;;12.70;96.40;;;;;;4594579;19;20286;-23
2023/06/03 02:37:02;;;;;;;;;;;12.60;96.50;;;;;;4594331;19;19915;-24
2023/06/03 02:38:33;;;;;;;;;;;12.60;96.50;;;;;;4593413;19;19940;-23
2023/06/03 02:40:05;;;;;;;;;;;12.70;96.50;;;;;;4594916;19;19918;-24
2023/06/03 02:41:36;;;;;;;;;;;12.60;96.50;;;;;;4594236;19;19985;-26
2023/06/03 02:43:07;;;;;;;;;;;12.60;96.60;;;;;;4592875;19;19943;-26
2023/06/03 02:44:38;;;;;;;;;;;12.60;96.80;;;;;;4593564;19;20333;-23
2023/06/03 02:46:09;;;;;;;;;;;12.60;97.00;;;;;;4594440;19;19919;-23
2023/06/03 02:47:40;;;;;;;;;;;12.60;97.00;;;;;;4592662;19;20345;-24
2023/06/03 02:49:12;;;;;;;;;;;12.60;97.00;;;;;;4593499;19;19920;-27
2023/06/03 02:50:43;;;;;;;;;;;12.60;97.10;;;;;;4594477;19;19974;-25
2023/06/03 02:52:14;;;;;;;;;;;12.60;97.10;;;;;;4594767;19;19925;-24
2023/06/03 02:53:48;;;;;;;;;;;12.60;97.00;;;;;;4593722;19;20270;-25
2023/06/03 02:55:19;;;;;;;;;;;12.60;96.80;;;;;;4593938;19;19922;-22
2023/06/03 02:56:50;;;;;;;;;;;12.60;96.80;;;;;;4594369;19;19915;-24
2023/06/03 02:58:21;;;;;;;;;;;12.60;97.00;;;;;;4592880;19;19910;-24
2023/06/03 02:59:52;;;;;;;;;;;12.60;96.90;;;;;;4593727;19;19942;-23
2023/06/03 03:01:23;;;;;;;;;;;12.50;97.20;;;;;;4594135;19;19910;-25
2023/06/03 03:02:54;;;;;;;;;;;12.60;97.30;;;;;;4593889;19;19915;-24
2023/06/03 03:04:26;;;;;;;;;;;12.60;97.30;;;;;;4593548;19;19930;-29
2023/06/03 03:05:57;;;;;;;;;;;12.60;97.40;;;;;;4592890;19;19932;-25
2023/06/03 03:07:32;;;;;;;;;;;12.60;97.40;;;;;;4593699;19;19923;-23
2023/06/03 03:09:04;;;;;;;;;;;12.60;97.30;;;;;;4593054;19;20330;-24
2023/06/03 03:10:35;;;;;;;;;;;12.60;97.40;;;;;;4593491;19;20249;-23
2023/06/03 03:12:08;;;;;;;;;;;12.60;97.60;;;;;;4593517;19;20249;-24
2023/06/03 03:13:40;;;;;;;;;;;12.60;97.50;;;;;;4592182;19;19922;-24
2023/06/03 03:15:11;;;;;;;;;;;12.60;97.50;;;;;;4593568;19;19915;-22
2023/06/03 03:16:43;;;;;;;;;;;12.60;97.30;;;;;;4593320;19;20315;-26
2023/06/03 03:18:14;;;;;;;;;;;12.60;97.30;;;;;;4592778;19;20253;-22
2023/06/03 03:19:45;;;;;;;;;;;12.60;97.30;;;;;;4593046;19;19919;-24
2023/06/03 03:21:16;;;;;;;;;;;12.60;97.40;;;;;;4593592;19;19919;-23
2023/06/03 03:22:48;;;;;;;;;;;12.60;97.30;;;;;;4592967;19;19990;-25
2023/06/03 03:24:22;;;;;;;;;;;12.60;97.30;;;;;;4591881;19;19911;-23
2023/06/03 03:25:59;;;;;;;;;;;12.60;97.50;;;;;;4592907;19;19918;-25
2023/06/03 03:27:30;;;;;;;;;;;12.60;97.60;;;;;;4593388;19;20328;-25
2023/06/03 03:29:01;;;;;;;;;;;12.60;97.70;;;;;;4593217;19;19923;-23
2023/06/03 03:30:32;;;;;;;;;;;12.60;97.90;;;;;;4593752;19;19923;-26
2023/06/03 03:32:07;;;;;;;;;;;12.60;97.90;;;;;;4593535;19;20241;-27
2023/06/03 03:33:38;;;;;;;;;;;12.60;97.90;;;;;;4592892;19;20327;-23
2023/06/03 03:35:15;;;;;;;;;;;12.60;97.90;;;;;;4592865;19;19915;-23
2023/06/03 03:39:09;;;;;;;;;;;12.70;97.90;;;;;;4592184;19;19911;-25
2023/06/03 03:40:41;;;;;;;;;;;12.70;98.60;;;;;;4592877;19;19942;-24
2023/06/03 03:42:13;;;;;;;;;;;13.30;98.50;;;;;;4593815;19;20365;-23
2023/06/03 03:43:44;;;;;;;;;;;13.90;97.80;;;;;;4591508;19;19921;-24
2023/06/03 03:45:18;;;;;;;;;;;14.40;97.30;;;;;;4592216;19;19925;-25
2023/06/03 03:46:54;;;;;;;;;;;14.80;96.90;;;;;;4591544;19;19919;-23
2023/06/03 03:48:26;;;;;;;;;;;15.20;96.60;;;;;;4592158;19;19971;-24
2023/06/03 03:49:57;;;;;;;;;;;15.50;96.10;;;;;;4591601;19;19919;-24
2023/06/03 03:51:28;;;;;;;;;;;15.80;95.80;;;;;;4590248;19;19918;-27
2023/06/03 03:53:00;;;;;;;;;;;16.00;95.40;;;;;;4590486;19;19915;-24
2023/06/03 03:54:32;;;;;;;;;;;16.20;95.10;;;;;;4590519;19;19929;-24
2023/06/03 03:56:06;;;;;;;;;;;16.30;95.00;;;;;;4590591;19;20369;-26
2023/06/03 03:57:52;;;;;;;;;;;16.50;94.80;;;;;;4589733;19;20022;-24
2023/06/03 03:59:25;;;;;;;;;;;16.60;94.60;;;;;;4590819;19;19935;-27
2023/06/03 04:00:59;;;;;;;;;;;16.70;94.50;;;;;;4590511;19;19918;-26
2023/06/03 04:02:32;;;;;;;;;;;16.80;94.40;;;;;;4590219;19;20350;-24
2023/06/03 04:04:03;;;;;;;;;;;16.90;94.20;;;;;;4590001;19;19926;-25
2023/06/03 04:05:34;;;;;;;;;;;17.00;94.30;;;;;;4590619;19;20256;-23
2023/06/03 04:07:06;;;;;;;;;;;17.20;94.10;;;;;;4590736;19;20318;-24
2023/06/03 04:30:58;;;;;;;;;;;18.00;93.90;;;;;;4587545;19;20070;-24
2023/06/03 04:32:29;;;;;;;;;;;18.10;93.90;;;;;;4591901;19;19918;-25
2023/06/03 04:34:02;;;;;;;;;;;18.20;93.90;;;;;;4590774;19;20008;-25
2023/06/03 04:35:34;;;;;;;;;;;18.20;93.80;;;;;;4591317;19;19918;-24
2023/06/03 04:37:05;;;;;;;;;;;18.30;93.80;;;;;;4588950;19;20015;-22
2023/06/03 04:38:36;;;;;;;;;;;18.40;93.80;;;;;;4590222;19;20244;-24
2023/06/03 04:40:10;;;;;;;;;;;18.40;93.70;;;;;;4591436;19;19919;-24
2023/06/03 04:41:41;;;;;;;;;;;18.40;93.70;;;;;;4591697;19;19943;-26
2023/06/03 04:43:14;;;;;;;;;;;18.50;93.70;;;;;;4592024;19;19919;-26
2023/06/03 04:44:45;;;;;;;;;;;18.50;93.70;;;;;;4590548;19;19918;-24
2023/06/03 04:46:16;;;;;;;;;;;18.60;93.70;;;;;;4590126;19;19927;-25
2023/06/03 04:47:47;;;;;;;;;;;18.60;93.70;;;;;;4591002;19;20355;-24
2023/06/03 04:49:18;;;;;;;;;;;18.60;93.70;;;;;;4591895;19;19923;-24
2023/06/03 04:50:49;;;;;;;;;;;18.60;93.70;;;;;;4590788;19;19914;-25
2023/06/03 04:52:20;;;;;;;;;;;18.70;93.70;;;;;;4590874;19;19939;-24
2023/06/03 04:53:51;;;;;;;;;;;18.70;93.80;;;;;;4591701;19;20250;-27
2023/06/03 04:55:25;;;;;;;;;;;18.70;93.70;;;;;;4591761;19;19952;-23
2023/06/03 04:56:56;;;;;;;;;;;18.70;93.70;;;;;;4591062;19;19988;-26
2023/06/03 04:58:28;;;;;;;;;;;18.70;93.60;;;;;;4588921;19;19925;-25
2023/06/03 05:00:04;;;;;;;;;;;18.80;93.60;;;;;;4589599;19;19937;-23
2023/06/03 05:01:39;;;;;;;;;;;18.80;93.60;;;;;;4591009;19;19922;-24
2023/06/03 05:03:10;;;;;;;;;;;18.80;93.60;;;;;;4590921;19;19919;-24
2023/06/03 05:04:41;;;;;;;;;;;18.80;93.60;;;;;;4590797;19;20245;-25
2023/06/03 05:06:12;;;;;;;;;;;18.80;93.60;;;;;;4590847;19;19967;-26
2023/06/03 05:07:45;;;;;;;;;;;18.90;93.60;;;;;;4590506;19;20234;-25
2023/06/03 05:09:16;;;;;;;;;;;18.90;93.60;;;;;;4589857;19;19918;-24
2023/06/03 05:10:47;;;;;;;;;;;18.90;93.60;;;;;;4589915;19;19958;-26
2023/06/03 05:12:18;;;;;;;;;;;18.90;93.50;;;;;;4590500;19;19970;-24
2023/06/03 05:13:51;;;;;;;;;;;18.90;93.60;;;;;;4589829;19;20309;-29
2023/06/03 05:15:21;;;;;;;;;;;19.00;93.60;;;;;;4589206;19;20270;-28
2023/06/03 05:16:54;;;;;;;;;;;19.00;93.50;;;;;;4590579;19;19923;-25
2023/06/03 05:18:26;;;;;;;;;;;19.00;93.50;;;;;;4589124;19;19937;-25
2023/06/03 05:19:57;;;;;;;;;;;19.00;93.40;;;;;;4589628;19;19914;-24
2023/06/03 05:21:28;;;;;;;;;;;19.00;93.30;;;;;;4589743;19;19946;-27
2023/06/03 05:22:59;;;;;;;;;;;19.00;93.50;;;;;;4589970;19;19922;-25
2023/06/03 05:24:30;;;;;;;;;;;19.00;93.20;;;;;;4590992;19;19915;-24
2023/06/03 05:26:01;;;;;;;;;;;19.00;93.20;;;;;;4590397;19;19931;-28
2023/06/03 05:27:32;;;;;;;;;;;19.00;93.40;;;;;;4590894;19;19978;-27
2023/06/03 05:29:03;;;;;;;;;;;19.10;93.30;;;;;;4590214;19;20354;-24
2023/06/03 05:30:34;;;;;;;;;;;19.10;93.50;;;;;;4594622;19;19921;-24
2023/06/03 05:32:05;;;;;;;;;;;19.20;93.20;;;;;;4592409;19;19922;-24
2023/06/03 05:33:36;;;;;;;;;;;19.20;93.30;;;;;;4595173;19;20340;-25
2023/06/03 05:35:08;;;;;;;;;;;19.30;93.00;;;;;;4594181;19;19937;-24
2023/06/03 05:36:39;;;;;;;;;;;19.30;93.00;;;;;;4593772;19;19918;-23
2023/06/03 05:38:12;;;;;;;;;;;19.40;93.40;;;;;;4593237;19;20298;-24
2023/06/03 05:39:43;;;;;;;;;;;19.40;93.10;;;;;;4594222;19;19939;-25
2023/06/03 05:41:15;;;;;;;;;;;19.50;93.10;;;;;;4595192;19;20253;-26
2023/06/03 05:42:49;;;;;;;;;;;19.60;93.00;;;;;;4594057;19;20274;-22
2023/06/03 05:44:19;;;;;;;;;;;19.70;92.90;;;;;;4595455;19;19914;-24
2023/06/03 05:45:51;;;;;;;;;;;19.80;92.70;;;;;;4595322;19;19925;-22
2023/06/03 05:47:24;;;;;;;;;;;19.90;92.50;;;;;;4594120;19;19925;-22
2023/06/03 05:48:55;;;;;;;;;;;20.00;92.40;;;;;;4593640;19;19943;-26
2023/06/03 05:50:26;;;;;;;;;;;20.10;92.20;;;;;;4594323;19;19975;-25
2023/06/03 05:51:57;;;;;;;;;;;20.20;92.10;;;;;;4595654;19;20245;-24
2023/06/03 05:53:28;;;;;;;;;;;20.30;91.90;;;;;;4595879;19;19926;-24
2023/06/03 05:55:00;;;;;;;;;;;20.30;91.70;;;;;;4594754;19;19923;-26
2023/06/03 05:56:33;;;;;;;;;;;20.30;91.60;;;;;;4594606;19;20282;-25
2023/06/03 05:58:05;;;;;;;;;;;20.40;91.50;;;;;;4594142;19;19918;-24
2023/06/03 05:59:36;;;;;;;;;;;20.40;91.30;;;;;;4594879;19;19923;-25
2023/06/03 06:01:07;;;;;;;;;;;20.50;91.20;;;;;;4594586;19;19974;-27
2023/06/03 06:02:39;;;;;;;;;;;20.50;91.10;;;;;;4594611;19;19919;-23
2023/06/03 06:04:10;;;;;;;;;;;20.50;90.80;;;;;;4595028;19;19929;-25
2023/06/03 06:05:41;;;;;;;;;;;20.50;90.80;;;;;;4594458;19;20370;-24
2023/06/03 06:07:12;;;;;;;;;;;20.50;90.80;;;;;;4594501;19;20279;-26
2023/06/03 06:08:44;;;;;;;;;;;20.50;90.70;;;;;;4593443;19;20424;-24
2023/06/03 06:10:15;;;;;;;;;;;20.50;90.70;;;;;;4594328;19;20321;-25
2023/06/03 06:11:46;;;;;;;;;;;20.50;90.40;;;;;;4593274;19;19936;-27
2023/06/03 06:13:17;;;;;;;;;;;20.50;90.40;;;;;;4593947;19;19910;-29
2023/06/03 06:14:48;;;;;;;;;;;20.50;90.20;;;;;;4594848;19;19919;-28
2023/06/03 06:16:19;;;;;;;;;;;20.40;90.10;;;;;;4595127;19;19947;-24
2023/06/03 06:17:50;;;;;;;;;;;20.40;90.10;;;;;;4593859;19;19922;-24
2023/06/03 06:19:24;;;;;;;;;;;20.40;90.00;;;;;;4592714;19;19919;-27
2023/06/03 06:20:56;;;;;;;;;;;20.40;89.90;;;;;;4593699;19;19911;-22
2023/06/03 06:22:28;;;;;;;;;;;20.40;89.70;;;;;;4594219;19;19918;-26
2023/06/03 06:23:59;;;;;;;;;;;20.40;89.80;;;;;;4594233;19;19970;-23
2023/06/03 06:25:30;;;;;;;;;;;20.40;90.10;;;;;;4594057;19;19931;-25
2023/06/03 06:27:01;;;;;;;;;;;20.40;91.00;;;;;;4593985;19;19986;-25
2023/06/03 06:28:32;;;;;;;;;;;20.40;92.90;;;;;;4593612;19;19911;-25
2023/06/03 06:30:03;;;;;;;;;;;20.40;92.60;;;;;;4593993;19;19915;-25
2023/06/03 06:31:34;;;;;;;;;;;20.30;92.80;;;;;;4593677;19;19918;-25
2023/06/03 06:33:05;;;;;;;;;;;19.40;85.60;;;;;;4594865;19;19922;-23
2023/06/03 06:34:36;;;;;;;;;;;17.50;88.90;;;;;;4593740;19;19989;-24
2023/06/03 06:36:25;;;;;;;;;;;16.50;89.80;;;;;;4591553;19;19911;-24
2023/06/03 06:37:56;;;;;;;;;;;15.80;90.50;;;;;;4591278;19;20012;-23
2023/06/03 06:39:33;;;;;;;;;;;15.40;91.60;;;;;;4592361;19;19928;-24
2023/06/03 06:41:05;;;;;;;;;;;15.30;92.20;;;;;;4589378;19;19918;-23
2023/06/03 06:42:39;;;;;;;;;;;15.20;91.60;;;;;;4592053;19;19919;-27
2023/06/03 06:44:10;;;;;;;;;;;15.10;91.60;;;;;;4591688;19;19932;-24
2023/06/03 06:45:42;;;;;;;;;;;15.10;92.00;;;;;;4592523;19;19906;-27
2023/06/03 06:47:32;;;;;;;;;;;15.10;91.30;;;;;;4591804;19;20333;-24
2023/06/03 06:49:03;;;;;;;;;;;15.00;91.30;;;;;;4591712;19;19943;-27
2023/06/03 06:50:41;;;;;;;;;;;15.00;91.50;;;;;;4592151;19;19930;-26
2023/06/03 06:52:12;;;;;;;;;;;15.00;92.20;;;;;;4591349;19;19914;-28
2023/06/03 06:53:43;;;;;;;;;;;15.00;90.90;;;;;;4591641;19;20234;-24
2023/06/03 06:55:28;;;;;;;;;;;15.00;90.90;;;;;;4591311;19;19979;-22
2023/06/03 06:56:59;;;;;;;;;;;15.00;91.50;;;;;;4591587;19;19929;-24
2023/06/03 06:58:37;;;;;;;;;;;15.00;91.20;;;;;;4590405;19;19914;-24
2023/06/03 07:00:09;;;;;;;;;;;15.00;90.80;;;;;;4591893;19;20314;-24
2023/06/03 07:01:40;;;;;;;;;;;15.00;90.80;;;;;;4591360;19;19915;-25
2023/06/03 07:03:12;;;;;;;;;;;15.00;89.80;;;;;;4591368;19;19914;-28
2023/06/03 07:04:43;;;;;;;;;;;15.00;89.20;;;;;;4591538;19;19970;-25
2023/06/03 07:06:14;;;;;;;;;;;15.00;88.90;;;;;;4592137;19;19911;-23
2023/06/03 07:07:48;;;;;;;;;;;15.00;90.40;;;;;;4592605;19;20296;-25
2023/06/03 07:09:20;;;;;;;;;;;15.00;90.60;;;;;;4592797;19;19914;-24
2023/06/03 07:10:55;;;;;;;;;;;15.00;91.30;;;;;;4594368;19;19928;-26
2023/06/03 07:12:28;;;;;;;;;;;15.00;90.20;;;;;;4593811;19;20314;-25
2023/06/03 07:14:00;;;;;;;;;;;15.00;90.20;;;;;;4593131;19;20273;-27
2023/06/03 07:15:31;;;;;;;;;;;15.00;91.10;;;;;;4592754;19;19914;-25
2023/06/03 07:17:02;;;;;;;;;;;15.00;91.30;;;;;;4593218;19;19911;-24
2023/06/03 07:18:33;;;;;;;;;;;15.00;89.60;;;;;;4591955;19;19918;-23
2023/06/03 07:20:05;;;;;;;;;;;15.00;90.40;;;;;;4592077;19;19915;-23
2023/06/03 07:21:38;;;;;;;;;;;15.00;90.40;;;;;;4593174;19;19934;-25
2023/06/03 07:23:10;;;;;;;;;;;15.00;89.90;;;;;;4593587;19;19918;-25
2023/06/03 07:24:41;;;;;;;;;;;15.00;89.60;;;;;;4592303;19;19919;-27
2023/06/03 07:26:13;;;;;;;;;;;15.00;88.20;;;;;;4593088;19;19945;-29
2023/06/03 07:27:44;;;;;;;;;;;15.00;91.40;;;;;;4592009;19;20325;-22
2023/06/03 07:29:16;;;;;;;;;;;15.00;92.80;;;;;;4593361;19;19935;-23
2023/06/03 07:30:52;;;;;;;;;;;15.00;91.60;;;;;;4592711;19;19911;-24
2023/06/03 07:32:24;;;;;;;;;;;15.00;95.00;;;;;;4593196;19;19942;-29
2023/06/03 07:33:56;;;;;;;;;;;15.00;94.90;;;;;;4591918;19;19911;-28
2023/06/03 07:35:27;;;;;;;;;;;15.00;94.10;;;;;;4592465;19;19943;-24
2023/06/03 07:37:01;;;;;;;;;;;15.00;97.10;;;;;;4592757;19;19982;-26
2023/06/03 07:38:37;;;;;;;;;;;15.00;95.60;;;;;;4592094;19;19910;-25
2023/06/03 07:40:18;;;;;;;;;;;15.00;96.40;;;;;;4593248;19;19984;-23
2023/06/03 07:41:52;;;;;;;;;;;15.00;95.90;;;;;;4592139;19;20253;-24
2023/06/03 07:43:23;;;;;;;;;;;14.90;92.90;;;;;;4592388;19;20006;-24
2023/06/03 07:44:56;;;;;;;;;;;14.90;92.70;;;;;;4591587;19;20304;-24
2023/06/03 07:46:35;;;;;;;;;;;14.90;97.70;;;;;;4592567;19;19917;-24
2023/06/03 07:48:07;;;;;;;;;;;14.90;98.50;;;;;;4591320;19;19918;-24
2023/06/03 07:49:43;;;;;;;;;;;14.90;99.40;;;;;;4592079;19;19926;-24
2023/06/03 07:51:14;;;;;;;;;;;14.90;99.90;;;;;;4592698;19;20274;-23
2023/06/03 07:52:47;;;;;;;;;;;14.90;98.40;;;;;;4591314;19;19914;-27
2023/06/03 07:54:18;;;;;;;;;;;14.90;97.60;;;;;;4591486;19;19910;-24
2023/06/03 07:55:50;;;;;;;;;;;14.90;98.70;;;;;;4591408;19;19931;-27
2023/06/03 07:57:21;;;;;;;;;;;14.90;96.00;;;;;;4591177;19;19922;-24
2023/06/03 07:58:52;;;;;;;;;;;15.00;99.60;;;;;;4591618;19;19930;-23
2023/06/03 08:00:24;;;;;;;;;;;15.00;99.90;;;;;;4592605;19;19970;-24
2023/06/03 08:01:58;;;;;;;;;;;15.00;99.90;;;;;;4592770;19;19962;-24
2023/06/03 08:03:30;;;;;;;;;;;15.00;99.90;;;;;;4592837;19;19915;-24
2023/06/03 08:05:04;;;;;;;;;;;15.00;99.90;;;;;;4592445;19;20333;-25
2023/06/03 08:06:36;;;;;;;;;;;15.00;98.90;;;;;;4591253;19;20368;-23
2023/06/03 08:08:10;;;;;;;;;;;15.00;96.90;;;;;;4592099;19;20348;-23
2023/06/03 08:09:42;;;;;;;;;;;15.00;96.40;;;;;;4590110;19;20247;-28
2023/06/03 08:11:15;;;;;;;;;;;14.90;97.10;;;;;;4592130;19;19922;-24
2023/06/03 08:12:47;;;;;;;;;;;14.90;94.60;;;;;;4590980;19;19936;-25
2023/06/03 08:14:19;;;;;;;;;;;14.90;95.50;;;;;;4591010;19;20258;-25
2023/06/03 08:15:51;;;;;;;;;;;14.90;95.70;;;;;;4591427;19;19926;-22
2023/06/03 08:17:37;;;;;;;;;;;14.90;98.40;;;;;;4592102;19;19967;-23
2023/06/03 08:19:10;;;;;;;;;;;14.90;97.10;;;;;;4592040;19;19926;-29
2023/06/03 08:20:42;;;;;;;;;;;14.90;95.20;;;;;;4590688;19;20287;-24
2023/06/03 08:22:32;;;;;;;;;;;14.90;96.30;;;;;;4591722;19;19975;-24
2023/06/03 08:24:03;;;;;;;;;;;14.90;98.00;;;;;;4590724;19;19990;-23
2023/06/03 08:25:36;;;;;;;;;;;14.90;97.00;;;;;;4591952;19;19919;-24
2023/06/03 08:27:07;;;;;;;;;;;14.90;99.60;;;;;;4591349;19;20341;-24
2023/06/03 08:28:39;;;;;;;;;;;15.00;98.60;;;;;;4590333;19;19980;-22
2023/06/03 08:30:12;;;;;;;;;;;14.90;96.20;;;;;;4591740;19;19930;-25
2023/06/03 08:31:43;;;;;;;;;;;15.00;97.00;;;;;;4591560;19;19938;-23
2023/06/03 08:33:15;;;;;;;;;;;15.00;99.30;;;;;;4591895;19;20368;-26
2023/06/03 08:34:46;;;;;;;;;;;15.00;97.00;;;;;;4590795;19;19977;-23
2023/06/03 08:36:17;;;;;;;;;;;15.00;95.40;;;;;;4591976;19;19915;-23
2023/06/03 08:37:49;;;;;;;;;;;15.00;95.70;;;;;;4590410;19;19910;-24
2023/06/03 08:39:20;;;;;;;;;;;15.00;94.10;;;;;;4591026;19;19918;-26
2023/06/03 08:40:50;;;;;;;;;;;15.00;93.40;;;;;;4590862;19;20280;-26
2023/06/03 08:42:22;;;;;;;;;;;15.00;93.70;;;;;;4591545;19;19918;-25
2023/06/03 08:43:59;;;;;;;;;;;15.10;94.40;;;;;;4590360;19;20116;-27
2023/06/03 08:45:31;;;;;;;;;;;15.10;94.80;;;;;;4590547;19;19978;-27
2023/06/03 08:47:15;;;;;;;;;;;15.10;94.10;;;;;;4590589;19;20378;-24
2023/06/03 10:45:14;;;;;;;;;;;21.40;85.70;;;;;;4590923;19;19922;-25
2023/06/03 10:47:05;;;;;;;;;;;21.30;90.20;;;;;;4592918;19;19915;-27
2023/06/03 10:48:36;;;;;;;;;;;21.30;92.60;;;;;;4591705;19;19922;-26
2023/06/03 10:50:27;;;;;;;;;;;21.20;92.90;;;;;;4592066;19;19925;-27
2023/06/03 10:51:58;;;;;;;;;;;21.00;91.70;;;;;;4592225;19;19933;-25
2023/06/03 10:53:49;;;;;;;;;;;20.90;91.00;;;;;;4591967;19;19935;-25
2023/06/03 10:55:30;;;;;;;;;;;20.90;89.90;;;;;;4591620;19;19919;-28
2023/06/03 10:57:06;;;;;;;;;;;20.80;91.90;;;;;;4591612;19;20245;-24
2023/06/03 10:58:37;;;;;;;;;;;20.70;90.30;;;;;;4590902;19;19915;-25
2023/06/03 11:00:09;;;;;;;;;;;20.70;91.50;;;;;;4590862;19;19918;-25
2023/06/03 11:01:57;;;;;;;;;;;20.70;86.10;;;;;;4589712;19;19915;-25
2023/06/03 11:03:29;;;;;;;;;;;20.70;86.20;;;;;;4590850;19;20012;-25
2023/06/03 11:05:18;;;;;;;;;;;20.70;87.50;;;;;;4591157;19;19996;-28
2023/06/03 11:06:49;;;;;;;;;;;20.70;86.70;;;;;;4591117;19;20301;-25
2023/06/03 11:08:38;;;;;;;;;;;20.70;85.70;;;;;;4591858;19;19917;-24
2023/06/03 11:10:41;;;;;;;;;;;20.60;85.90;;;;;;4592142;19;19911;-26
2023/06/03 11:12:13;;;;;;;;;;;20.60;85.20;;;;;;4591841;19;19945;-24
2023/06/03 11:13:45;;;;;;;;;;;20.50;86.20;;;;;;4590908;19;19930;-24
2023/06/03 11:15:18;;;;;;;;;;;20.60;85.70;;;;;;4591271;19;19911;-24
2023/06/03 11:16:58;;;;;;;;;;;20.50;85.90;;;;;;4591326;19;19922;-28
2023/06/03 11:18:29;;;;;;;;;;;20.50;86.10;;;;;;4591083;19;20305;-27
2023/06/03 11:20:00;;;;;;;;;;;20.50;85.40;;;;;;4590958;19;19945;-28
2023/06/03 11:21:47;;;;;;;;;;;20.50;85.50;;;;;;4591275;19;19930;-29
2023/06/03 11:23:50;;;;;;;;;;;20.50;86.00;;;;;;4591320;19;19949;-25
2023/06/03 11:25:25;;;;;;;;;;;20.50;86.10;;;;;;4591429;19;19933;-26
2023/06/03 11:26:56;;;;;;;;;;;20.50;85.40;;;;;;4590009;19;20013;-25
2023/06/03 11:28:27;;;;;;;;;;;20.50;85.70;;;;;;4590447;19;20257;-25
2023/06/03 11:29:59;;;;;;;;;;;20.50;86.00;;;;;;4590908;19;19915;-27
2023/06/03 11:31:31;;;;;;;;;;;20.50;86.00;;;;;;4591251;19;19919;-23
2023/06/03 11:33:12;;;;;;;;;;;20.50;86.30;;;;;;4590464;19;19914;-24
2023/06/03 11:34:43;;;;;;;;;;;20.50;85.30;;;;;;4590676;19;19926;-26
2023/06/03 11:36:34;;;;;;;;;;;20.50;84.90;;;;;;4591006;19;19922;-26
2023/06/03 11:38:05;;;;;;;;;;;20.50;85.80;;;;;;4590603;19;19949;-25
2023/06/03 11:39:57;;;;;;;;;;;20.50;86.00;;;;;;4591095;19;19922;-25
2023/06/03 11:41:51;;;;;;;;;;;20.50;85.60;;;;;;4590907;19;19919;-24
2023/06/03 11:43:22;;;;;;;;;;;20.50;85.80;;;;;;4590941;19;19918;-24
2023/06/03 11:44:53;;;;;;;;;;;20.50;85.40;;;;;;4589945;19;19958;-24
2023/06/03 11:46:24;;;;;;;;;;;20.50;85.70;;;;;;4590128;19;20294;-25
2023/06/03 11:47:56;;;;;;;;;;;20.50;86.10;;;;;;4590746;19;20252;-25
2023/06/03 11:49:27;;;;;;;;;;;20.50;86.20;;;;;;4590414;19;20341;-24
2023/06/03 11:51:00;;;;;;;;;;;20.50;86.10;;;;;;4590687;19;19981;-24